Skadi — V2QR2 — position and weather

sailwx.info

Track history (hours):
 
Tides and Currents Weather Stations Pressure Air Temp Water Temp Dewpoint Dewpoint Depression Visibility Wind Speed Wind Dir Waves Ship Positions

Skadi

Last reported at 2017-Oct-15 20:56 UTC. Time now 2017-Oct-19 22:08 UTC.
Position N 54°53' E 007°21'.

Length 142 m; draft 9.6 m.

Type: Cargo ship. MMSI: 305049000.

Date/timePositionNaut miles runAvg speedWind from/ knotsBaromVisibWave heightAir tempDewpointWater temp
2017-Oct-15 20:56N 54°53' E 007°21'4 8.5
2017-Oct-15 20:30N 54°56' E 007°21'4 8.5
2017-Oct-15 20:00N 55°00' E 007°21'4 8.6
2017-Oct-15 19:30N 55°05' E 007°21'4 8.7
2017-Oct-15 19:00N 55°09' E 007°20'4 8.8
2017-Oct-15 18:30N 55°13' E 007°20'4 9.0
2017-Oct-15 18:00N 55°18' E 007°19'5 9.2
2017-Oct-15 17:30N 55°23' E 007°19'5 9.3
2017-Oct-15 17:00N 55°27' E 007°19'5 9.5
2017-Oct-15 16:30N 55°32' E 007°18'510.5
2017-Oct-15 16:00N 55°37' E 007°18'510.0
2017-Oct-15 15:30N 55°42' E 007°17'5 9.6
2017-Oct-15 15:00N 55°47' E 007°16'10 9.6
2017-Oct-15 14:00N 55°56' E 007°15'76 5.8
2017-Oct-15 00:46N 57°07' E 008°08'2 8.1
2017-Oct-15 00:30N 57°08' E 008°11'4 7.9
2017-Oct-15 00:00N 57°10' E 008°18'4 7.9
2017-Oct-14 23:29N 57°12' E 008°25'4 7.7
2017-Oct-14 23:00N 57°13' E 008°30'4 7.7
2017-Oct-14 22:29N 57°15' E 008°37'21 7.8
2017-Oct-14 19:44N 57°27' E 009°10'3 7.9
2017-Oct-14 19:18N 57°29' E 009°15'5 7.7
2017-Oct-14 18:41N 57°32' E 009°23'2 7.6
2017-Oct-14 18:24N 57°33' E 009°26'3 7.5
2017-Oct-14 18:00N 57°34' E 009°31'4 7.6
2017-Oct-14 17:29N 57°36' E 009°37'4 7.5
2017-Oct-14 16:58N 57°38' E 009°43'4 7.4
2017-Oct-14 16:24N 57°41' E 009°50'3 8.1
2017-Oct-14 15:59N 57°42' E 009°55'4 8.1
2017-Oct-14 15:30N 57°44' E 010°02'6 8.7
2017-Oct-14 14:50N 57°46' E 010°13'3 9.3
2017-Oct-14 14:28N 57°47' E 010°18'4 8.9
2017-Oct-14 13:59N 57°49' E 010°26'4 9.0
2017-Oct-14 13:30N 57°48' E 010°34'4 8.6
2017-Oct-14 13:00N 57°48' E 010°42'4 7.7
2017-Oct-14 12:30N 57°47' E 010°49'4 8.9
2017-Oct-14 12:00N 57°44' E 010°54'5 9.1
2017-Oct-14 11:30N 57°41' E 011°01'5 9.1
2017-Oct-14 10:58N 57°37' E 011°07'5 9.8
2017-Oct-14 10:30N 57°34' E 011°13'510.1
2017-Oct-14 10:00N 57°31' E 011°20'5 9.8
2017-Oct-14 09:30N 57°27' E 011°26'510.5
2017-Oct-14 09:00N 57°22' E 011°30'510.3
2017-Oct-14 08:30N 57°17' E 011°33'510.1
2017-Oct-14 07:59N 57°12' E 011°36'113 9.7
2017-Oct-13 20:21N 55°21' E 011°02'410.5
2017-Oct-13 19:59N 55°17' E 011°04'510.2
2017-Oct-13 19:30N 55°13' E 011°06'510.4
2017-Oct-13 18:59N 55°08' E 011°03'510.9
2017-Oct-13 18:30N 55°02' E 011°02'510.6
2017-Oct-13 18:00N 54°58' E 010°58'611.3
2017-Oct-13 17:30N 54°53' E 010°53'612.1
2017-Oct-13 17:00N 54°47' E 010°52'510.5
2017-Oct-13 16:30N 54°42' E 010°55'611.5
2017-Oct-13 16:00N 54°39' E 011°04'510.8
2017-Oct-13 15:30N 54°36' E 011°12'510.6
2017-Oct-13 15:00N 54°34' E 011°20'510.1
2017-Oct-13 14:30N 54°31' E 011°27'510.8
2017-Oct-13 14:00N 54°29' E 011°36'510.4
2017-Oct-13 13:30N 54°27' E 011°44'510.4
2017-Oct-13 13:00N 54°27' E 011°53'510.7
2017-Oct-13 12:30N 54°27' E 012°02'510.0
2017-Oct-13 12:00N 54°28' E 012°10'510.4
2017-Oct-13 11:30N 54°33' E 012°12'5 9.8
2017-Oct-13 11:00N 54°37' E 012°16'66 9.9
2017-Oct-13 04:17N 55°04' E 014°01'2 8.4
2017-Oct-13 04:00N 55°05' E 014°05'7 9.0
2017-Oct-13 03:14N 55°11' E 014°13'2 9.4
2017-Oct-13 02:59N 55°13' E 014°15'5 9.5
2017-Oct-13 02:29N 55°16' E 014°21'5 9.6
2017-Oct-13 01:56N 55°20' E 014°26'4 9.5
2017-Oct-13 01:29N 55°23' E 014°32'5 9.2
2017-Oct-13 00:58N 55°26' E 014°38'4 8.5
2017-Oct-13 00:30N 55°27' E 014°45'4 8.0
2017-Oct-13 00:00N 55°27' E 014°52'4 8.2
2017-Oct-12 23:30N 55°27' E 014°59'5 8.1
2017-Oct-12 22:51N 55°28' E 015°09'3 7.8
2017-Oct-12 22:27N 55°28' E 015°14'3 7.6
2017-Oct-12 22:00N 55°28' E 015°20'5 7.5
2017-Oct-12 21:23N 55°28' E 015°28'7 7.5
2017-Oct-12 20:27N 55°28' E 015°41'3 7.5
2017-Oct-12 20:00N 55°29' E 015°47'5 7.6
2017-Oct-12 19:20N 55°29' E 015°56'9 7.4
2017-Oct-12 18:06N 55°30' E 016°12'1 7.0
2017-Oct-12 17:59N 55°30' E 016°13'  
2017-Oct-09 13:31N 55°27' E 015°49'012.1
2017-Oct-09 13:29N 55°27' E 015°48'1311.9
2017-Oct-09 12:24N 55°26' E 015°26'512.1
2017-Oct-09 12:01N 55°25' E 015°17'612.1
2017-Oct-09 11:30N 55°25' E 015°06'612.3
2017-Oct-09 11:00N 55°24' E 014°56'612.4
2017-Oct-09 10:29N 55°23' E 014°44'511.2
2017-Oct-09 10:00N 55°20' E 014°37'611.8
2017-Oct-09 09:31N 55°16' E 014°30'612.0
2017-Oct-09 09:01N 55°11' E 014°23'3112.4
2017-Oct-09 06:32N 55°12' E 013°30'113.0
2017-Oct-09 06:28N 55°12' E 013°28'613.0
2017-Oct-09 05:59N 55°13' E 013°17'613.0
2017-Oct-09 05:30N 55°14' E 013°06'712.9
2017-Oct-09 04:59N 55°15' E 012°55'612.3
2017-Oct-09 04:30N 55°16' E 012°45'510.1
2017-Oct-09 04:00N 55°20' E 012°38'612.4
2017-Oct-09 03:31N 55°26' E 012°39'612.7
2017-Oct-09 03:00N 55°32' E 012°42'611.1
2017-Oct-09 02:30N 55°37' E 012°42'612.8
2017-Oct-09 02:00N 55°44' E 012°41'612.7
2017-Oct-09 01:30N 55°50' E 012°41'612.7
2017-Oct-09 01:00N 55°56' E 012°39'714.2
2017-Oct-09 00:30N 56°04' E 012°38'714.5
2017-Oct-09 00:00N 56°08' E 012°28'5812.5
2017-Oct-08 19:23N 57°00' E 011°42'513.1
2017-Oct-08 19:00N 57°05' E 011°39'713.2
2017-Oct-08 18:27N 57°12' E 011°34'613.5
2017-Oct-08 18:00N 57°17' E 011°31'713.3
2017-Oct-08 17:30N 57°24' E 011°27'612.8
2017-Oct-08 17:00N 57°29' E 011°21'612.7
2017-Oct-08 16:30N 57°34' E 011°12'712.5
2017-Oct-08 15:59N 57°38' E 011°03'612.9
2017-Oct-08 15:30N 57°42' E 010°55'713.0
2017-Oct-08 15:00N 57°47' E 010°46'612.8
2017-Oct-08 14:30N 57°48' E 010°34'812.2
2017-Oct-08 13:53N 57°47' E 010°20'28110.7
2017-Oct-07 11:29N 54°07' E 005°08'510.7
2017-Oct-07 11:00N 54°02' E 005°05'510.8
2017-Oct-07 10:30N 53°57' E 005°01'611.0
2017-Oct-07 10:00N 53°52' E 004°58'510.9
2017-Oct-07 09:30N 53°46' E 004°55'1611.4
2017-Oct-07 08:06N 53°31' E 004°46'211.7
2017-Oct-07 07:58N 53°30' E 004°45'2812.4
2017-Oct-07 05:43N 53°05' E 004°25'412.9
2017-Oct-07 05:26N 53°01' E 004°23'613.2
2017-Oct-07 05:00N 52°56' E 004°19'713.5
2017-Oct-07 04:30N 52°50' E 004°14'713.3
2017-Oct-07 04:00N 52°45' E 004°06'713.8
2017-Oct-07 03:30N 52°40' E 003°58'9411.2
2017-Oct-06 19:10N 51°31' E 002°17'210.6
2017-Oct-06 19:00N 51°29' E 002°15'510.8
2017-Oct-06 18:30N 51°25' E 002°09'510.8
2017-Oct-06 18:00N 51°20' E 002°06'510.9
2017-Oct-06 17:30N 51°15' E 002°03'611.2
2017-Oct-06 17:00N 51°12' E 001°56'611.6
2017-Oct-06 16:30N 51°09' E 001°48'611.6
2017-Oct-06 16:00N 51°04' E 001°42'611.8
2017-Oct-06 15:30N 50°60' E 001°36'612.3
2017-Oct-06 14:59N 50°55' E 001°29'5811.8
2017-Oct-06 10:02N 50°21' E 000°15'314.2
2017-Oct-06 09:48N 50°20' E 000°09'514.5
2017-Oct-06 09:28N 50°19' E 000°02'714.8
2017-Oct-06 09:00N 50°17' W 000°08'3914.8
2017-Oct-06 06:22N 50°07' W 001°07'613.9
2017-Oct-06 05:54N 50°05' W 001°17'513.2
2017-Oct-06 05:31N 50°04' W 001°24'612.3
2017-Oct-06 05:00N 50°02' W 001°34'611.4
2017-Oct-06 04:30N 50°01' W 001°42'510.5
2017-Oct-06 04:00N 49°59' W 001°50'5 9.7
2017-Oct-06 03:30N 49°58' W 001°57'5 9.2
2017-Oct-06 03:00N 49°57' W 002°04'5 8.8
2017-Oct-06 02:26N 49°56' W 002°12'23 9.0
2017-Oct-05 23:55N 49°50' W 002°45'410.5
2017-Oct-05 23:30N 49°49' W 002°52'911.2
2017-Oct-05 22:42N 49°49' W 003°06'211.5
2017-Oct-05 22:30N 49°49' W 003°09'611.7
2017-Oct-05 22:00N 49°50' W 003°19'611.9
2017-Oct-05 21:30N 49°50' W 003°28'612.3
2017-Oct-05 21:00N 49°51' W 003°37'  
Track history (hours):
 
Tides and Currents Weather Stations Pressure Air Temp Water Temp Dewpoint Dewpoint Depression Visibility Wind Speed Wind Dir Waves Ship Positions

Skadi

Last reported at 2017-Oct-15 20:56 UTC. Time now 2017-Oct-19 22:08 UTC.
Position N 54°53' E 007°21'.

Length 142 m; draft 9.6 m.

Type: Cargo ship. MMSI: 305049000.

Date/timePositionNaut miles runAvg speedWind from/ knotsBaromVisibWave heightAir tempDewpointWater temp
2017-Oct-15 20:56N 54°53' E 007°21'4 8.5
2017-Oct-15 20:30N 54°56' E 007°21'4 8.5
2017-Oct-15 20:00N 55°00' E 007°21'4 8.6
2017-Oct-15 19:30N 55°05' E 007°21'4 8.7
2017-Oct-15 19:00N 55°09' E 007°20'4 8.8
2017-Oct-15 18:30N 55°13' E 007°20'4 9.0
2017-Oct-15 18:00N 55°18' E 007°19'5 9.2
2017-Oct-15 17:30N 55°23' E 007°19'5 9.3
2017-Oct-15 17:00N 55°27' E 007°19'5 9.5
2017-Oct-15 16:30N 55°32' E 007°18'510.5
2017-Oct-15 16:00N 55°37' E 007°18'510.0
2017-Oct-15 15:30N 55°42' E 007°17'5 9.6
2017-Oct-15 15:00N 55°47' E 007°16'10 9.6
2017-Oct-15 14:00N 55°56' E 007°15'76 5.8
2017-Oct-15 00:46N 57°07' E 008°08'2 8.1
2017-Oct-15 00:30N 57°08' E 008°11'4 7.9
2017-Oct-15 00:00N 57°10' E 008°18'4 7.9
2017-Oct-14 23:29N 57°12' E 008°25'4 7.7
2017-Oct-14 23:00N 57°13' E 008°30'4 7.7
2017-Oct-14 22:29N 57°15' E 008°37'21 7.8
2017-Oct-14 19:44N 57°27' E 009°10'3 7.9
2017-Oct-14 19:18N 57°29' E 009°15'5 7.7
2017-Oct-14 18:41N 57°32' E 009°23'2 7.6
2017-Oct-14 18:24N 57°33' E 009°26'3 7.5
2017-Oct-14 18:00N 57°34' E 009°31'4 7.6
2017-Oct-14 17:29N 57°36' E 009°37'4 7.5
2017-Oct-14 16:58N 57°38' E 009°43'4 7.4
2017-Oct-14 16:24N 57°41' E 009°50'3 8.1
2017-Oct-14 15:59N 57°42' E 009°55'4 8.1
2017-Oct-14 15:30N 57°44' E 010°02'6 8.7
2017-Oct-14 14:50N 57°46' E 010°13'3 9.3
2017-Oct-14 14:28N 57°47' E 010°18'4 8.9
2017-Oct-14 13:59N 57°49' E 010°26'4 9.0
2017-Oct-14 13:30N 57°48' E 010°34'4 8.6
2017-Oct-14 13:00N 57°48' E 010°42'4 7.7
2017-Oct-14 12:30N 57°47' E 010°49'4 8.9
2017-Oct-14 12:00N 57°44' E 010°54'5 9.1
2017-Oct-14 11:30N 57°41' E 011°01'5 9.1
2017-Oct-14 10:58N 57°37' E 011°07'5 9.8
2017-Oct-14 10:30N 57°34' E 011°13'510.1
2017-Oct-14 10:00N 57°31' E 011°20'5 9.8
2017-Oct-14 09:30N 57°27' E 011°26'510.5
2017-Oct-14 09:00N 57°22' E 011°30'510.3
2017-Oct-14 08:30N 57°17' E 011°33'510.1
2017-Oct-14 07:59N 57°12' E 011°36'113 9.7
2017-Oct-13 20:21N 55°21' E 011°02'410.5
2017-Oct-13 19:59N 55°17' E 011°04'510.2
2017-Oct-13 19:30N 55°13' E 011°06'510.4
2017-Oct-13 18:59N 55°08' E 011°03'510.9
2017-Oct-13 18:30N 55°02' E 011°02'510.6
2017-Oct-13 18:00N 54°58' E 010°58'611.3
2017-Oct-13 17:30N 54°53' E 010°53'612.1
2017-Oct-13 17:00N 54°47' E 010°52'510.5
2017-Oct-13 16:30N 54°42' E 010°55'611.5
2017-Oct-13 16:00N 54°39' E 011°04'510.8
2017-Oct-13 15:30N 54°36' E 011°12'510.6
2017-Oct-13 15:00N 54°34' E 011°20'510.1
2017-Oct-13 14:30N 54°31' E 011°27'510.8
2017-Oct-13 14:00N 54°29' E 011°36'510.4
2017-Oct-13 13:30N 54°27' E 011°44'510.4
2017-Oct-13 13:00N 54°27' E 011°53'510.7
2017-Oct-13 12:30N 54°27' E 012°02'510.0
2017-Oct-13 12:00N 54°28' E 012°10'510.4
2017-Oct-13 11:30N 54°33' E 012°12'5 9.8
2017-Oct-13 11:00N 54°37' E 012°16'66 9.9
2017-Oct-13 04:17N 55°04' E 014°01'2 8.4
2017-Oct-13 04:00N 55°05' E 014°05'7 9.0
2017-Oct-13 03:14N 55°11' E 014°13'2 9.4
2017-Oct-13 02:59N 55°13' E 014°15'5 9.5
2017-Oct-13 02:29N 55°16' E 014°21'5 9.6
2017-Oct-13 01:56N 55°20' E 014°26'4 9.5
2017-Oct-13 01:29N 55°23' E 014°32'5 9.2
2017-Oct-13 00:58N 55°26' E 014°38'4 8.5
2017-Oct-13 00:30N 55°27' E 014°45'4 8.0
2017-Oct-13 00:00N 55°27' E 014°52'4 8.2
2017-Oct-12 23:30N 55°27' E 014°59'5 8.1
2017-Oct-12 22:51N 55°28' E 015°09'3 7.8
2017-Oct-12 22:27N 55°28' E 015°14'3 7.6
2017-Oct-12 22:00N 55°28' E 015°20'5 7.5
2017-Oct-12 21:23N 55°28' E 015°28'7 7.5
2017-Oct-12 20:27N 55°28' E 015°41'3 7.5
2017-Oct-12 20:00N 55°29' E 015°47'5 7.6
2017-Oct-12 19:20N 55°29' E 015°56'9 7.4
2017-Oct-12 18:06N 55°30' E 016°12'1 7.0
2017-Oct-12 17:59N 55°30' E 016°13'  
2017-Oct-09 13:31N 55°27' E 015°49'012.1
2017-Oct-09 13:29N 55°27' E 015°48'1311.9
2017-Oct-09 12:24N 55°26' E 015°26'512.1
2017-Oct-09 12:01N 55°25' E 015°17'612.1
2017-Oct-09 11:30N 55°25' E 015°06'612.3
2017-Oct-09 11:00N 55°24' E 014°56'612.4
2017-Oct-09 10:29N 55°23' E 014°44'511.2
2017-Oct-09 10:00N 55°20' E 014°37'611.8
2017-Oct-09 09:31N 55°16' E 014°30'612.0
2017-Oct-09 09:01N 55°11' E 014°23'3112.4
2017-Oct-09 06:32N 55°12' E 013°30'113.0
2017-Oct-09 06:28N 55°12' E 013°28'613.0
2017-Oct-09 05:59N 55°13' E 013°17'613.0
2017-Oct-09 05:30N 55°14' E 013°06'712.9
2017-Oct-09 04:59N 55°15' E 012°55'612.3
2017-Oct-09 04:30N 55°16' E 012°45'510.1
2017-Oct-09 04:00N 55°20' E 012°38'612.4
2017-Oct-09 03:31N 55°26' E 012°39'612.7
2017-Oct-09 03:00N 55°32' E 012°42'611.1
2017-Oct-09 02:30N 55°37' E 012°42'612.8
2017-Oct-09 02:00N 55°44' E 012°41'612.7
2017-Oct-09 01:30N 55°50' E 012°41'612.7
2017-Oct-09 01:00N 55°56' E 012°39'714.2
2017-Oct-09 00:30N 56°04' E 012°38'714.5
2017-Oct-09 00:00N 56°08' E 012°28'5812.5
2017-Oct-08 19:23N 57°00' E 011°42'513.1
2017-Oct-08 19:00N 57°05' E 011°39'713.2
2017-Oct-08 18:27N 57°12' E 011°34'613.5
2017-Oct-08 18:00N 57°17' E 011°31'713.3
2017-Oct-08 17:30N 57°24' E 011°27'612.8
2017-Oct-08 17:00N 57°29' E 011°21'612.7
2017-Oct-08 16:30N 57°34' E 011°12'712.5
2017-Oct-08 15:59N 57°38' E 011°03'612.9
2017-Oct-08 15:30N 57°42' E 010°55'713.0
2017-Oct-08 15:00N 57°47' E 010°46'612.8
2017-Oct-08 14:30N 57°48' E 010°34'812.2
2017-Oct-08 13:53N 57°47' E 010°20'28110.7
2017-Oct-07 11:29N 54°07' E 005°08'510.7
2017-Oct-07 11:00N 54°02' E 005°05'510.8
2017-Oct-07 10:30N 53°57' E 005°01'611.0
2017-Oct-07 10:00N 53°52' E 004°58'510.9
2017-Oct-07 09:30N 53°46' E 004°55'1611.4
2017-Oct-07 08:06N 53°31' E 004°46'211.7
2017-Oct-07 07:58N 53°30' E 004°45'2812.4
2017-Oct-07 05:43N 53°05' E 004°25'412.9
2017-Oct-07 05:26N 53°01' E 004°23'613.2
2017-Oct-07 05:00N 52°56' E 004°19'713.5
2017-Oct-07 04:30N 52°50' E 004°14'713.3
2017-Oct-07 04:00N 52°45' E 004°06'713.8
2017-Oct-07 03:30N 52°40' E 003°58'9411.2
2017-Oct-06 19:10N 51°31' E 002°17'210.6
2017-Oct-06 19:00N 51°29' E 002°15'510.8
2017-Oct-06 18:30N 51°25' E 002°09'510.8
2017-Oct-06 18:00N 51°20' E 002°06'510.9
2017-Oct-06 17:30N 51°15' E 002°03'611.2
2017-Oct-06 17:00N 51°12' E 001°56'611.6
2017-Oct-06 16:30N 51°09' E 001°48'611.6
2017-Oct-06 16:00N 51°04' E 001°42'611.8
2017-Oct-06 15:30N 50°60' E 001°36'612.3
2017-Oct-06 14:59N 50°55' E 001°29'5811.8
2017-Oct-06 10:02N 50°21' E 000°15'314.2
2017-Oct-06 09:48N 50°20' E 000°09'514.5
2017-Oct-06 09:28N 50°19' E 000°02'714.8
2017-Oct-06 09:00N 50°17' W 000°08'3914.8
2017-Oct-06 06:22N 50°07' W 001°07'613.9
2017-Oct-06 05:54N 50°05' W 001°17'513.2
2017-Oct-06 05:31N 50°04' W 001°24'612.3
2017-Oct-06 05:00N 50°02' W 001°34'611.4
2017-Oct-06 04:30N 50°01' W 001°42'510.5
2017-Oct-06 04:00N 49°59' W 001°50'5 9.7
2017-Oct-06 03:30N 49°58' W 001°57'5 9.2
2017-Oct-06 03:00N 49°57' W 002°04'5 8.8
2017-Oct-06 02:26N 49°56' W 002°12'23 9.0
2017-Oct-05 23:55N 49°50' W 002°45'410.5
2017-Oct-05 23:30N 49°49' W 002°52'911.2
2017-Oct-05 22:42N 49°49' W 003°06'211.5
2017-Oct-05 22:30N 49°49' W 003°09'611.7
2017-Oct-05 22:00N 49°50' W 003°19'611.9
2017-Oct-05 21:30N 49°50' W 003°28'612.3
2017-Oct-05 21:00N 49°51' W 003°37'  

Dump ship's entire track history